Time;durP1;ratioP1;P1;durP2;ratioP2;P2;SDS_P1;SDS_P2;PMS_P1;PMS_P2;Temp;Humidity;BMP_temperature;BMP_pressure;BME280_temperature;BME280_humidity;BME280_pressure;Samples;Min_cycle;Max_cycle;Signal;HPM_P1;HPM_P2
2022/05/31 00:00:32;;;;;;;8.60;7.65;;;;;;;18.07;72.05;100756.84;1821607;78;20891;-87
2022/05/31 00:03:00;;;;;;;11.30;7.95;;;;;;;18.01;72.28;100751.62;1821674;78;21322;-87
2022/05/31 00:05:26;;;;;;;10.32;8.28;;;;;;;17.98;72.51;100753.20;1816763;78;20983;-86
2022/05/31 00:07:54;;;;;;;14.75;9.48;;;;;;;17.95;72.72;100750.83;1821604;78;20998;-89
2022/05/31 00:10:22;;;;;;;11.08;8.95;;;;;;;17.90;72.86;100745.10;1821584;78;21217;-87
2022/05/31 00:12:48;;;;;;;10.50;8.23;;;;;;;17.86;73.05;100750.33;1821588;78;20963;-88
2022/05/31 00:15:17;;;;;;;12.10;8.55;;;;;;;17.80;73.19;100747.68;1821946;78;20966;-88
2022/05/31 00:17:44;;;;;;;10.50;8.08;;;;;;;17.75;73.19;100747.26;1821834;78;21481;-88
2022/05/31 00:20:12;;;;;;;8.60;7.78;;;;;;;17.68;73.32;100755.41;1823535;78;20915;-88
2022/05/31 00:22:42;;;;;;;9.83;8.73;;;;;;;17.62;73.38;100759.42;1825411;78;21672;-88
2022/05/31 00:25:09;;;;;;;15.40;9.33;;;;;;;17.56;73.42;100754.19;1825245;78;20907;-88
2022/05/31 00:27:35;;;;;;;9.78;7.85;;;;;;;17.50;73.62;100753.39;1825357;78;20923;-87
2022/05/31 00:30:03;;;;;;;10.80;9.00;;;;;;;17.45;73.91;100758.23;1825519;78;20891;-88
2022/05/31 00:32:35;;;;;;;10.00;9.00;;;;;;;17.38;74.21;100755.27;1825391;78;20887;-87
2022/05/31 00:35:09;;;;;;;10.53;8.25;;;;;;;17.32;74.51;100754.50;1825228;78;21229;-88
2022/05/31 00:37:36;;;;;;;9.03;8.10;;;;;;;17.29;74.78;100749.45;1825380;78;20907;-87
2022/05/31 00:40:04;;;;;;;13.20;9.55;;;;;;;17.26;75.03;100748.89;1826025;78;20880;-88
2022/05/31 00:42:57;;;;;;;11.03;9.93;;;;;;;17.21;75.26;100749.28;1826106;78;20914;-85
2022/05/31 00:45:52;;;;;;;12.97;9.33;;;;;;;17.16;75.60;100752.33;1825836;78;20986;-87
2022/05/31 00:48:32;;;;;;;13.43;10.30;;;;;;;17.11;75.95;100751.87;1825521;78;21236;-88
2022/05/31 00:51:06;;;;;;;12.05;9.63;;;;;;;17.06;76.20;100752.75;1825242;78;21464;-87
2022/05/31 00:53:41;;;;;;;12.90;10.28;;;;;;;17.03;76.31;100748.19;1823965;78;20875;-88
2022/05/31 00:56:12;;;;;;;12.58;10.55;;;;;;;16.99;76.44;100747.14;1825164;78;20852;-88
2022/05/31 00:59:06;;;;;;;13.22;10.55;;;;;;;16.97;76.57;100757.52;1825155;78;20856;-87
2022/05/31 01:01:36;;;;;;;12.15;10.78;;;;;;;16.93;76.68;100757.42;1825240;78;21092;-87
2022/05/31 01:04:03;;;;;;;13.68;10.60;;;;;;;16.88;76.81;100759.63;1825174;78;21396;-88
2022/05/31 01:06:32;;;;;;;12.07;9.68;;;;;;;16.84;76.92;100758.20;1825234;78;20911;-89
2022/05/31 01:09:00;;;;;;;17.42;10.60;;;;;;;16.79;77.01;100758.55;1825663;78;20860;-88
2022/05/31 01:11:40;;;;;;;12.45;9.78;;;;;;;16.75;77.13;100761.94;1825378;78;20867;-89
2022/05/31 01:14:16;;;;;;;11.43;10.25;;;;;;;16.71;77.36;100762.32;1825379;78;21096;-89
2022/05/31 01:17:07;;;;;;;15.78;9.90;;;;;;;16.69;77.47;100765.58;1825194;78;21388;-85
2022/05/31 01:19:55;;;;;;;15.32;10.90;;;;;;;16.64;77.64;100761.99;1780979;77;20987;-88
2022/05/31 01:22:42;;;;;;;13.22;10.18;;;;;;;16.61;77.86;100758.75;1825187;78;20997;-88
2022/05/31 01:25:55;;;;;;;12.15;9.80;;;;;;;16.61;78.08;100765.37;1825395;78;20931;-88
2022/05/31 01:28:50;;;;;;;13.88;9.78;;;;;;;16.58;78.29;100771.30;1824878;77;21144;-88
2022/05/31 01:31:28;;;;;;;13.62;10.15;;;;;;;16.57;78.59;100771.42;1825260;77;20881;-87
2022/05/31 01:35:06;;;;;;;11.78;10.58;;;;;;;16.63;78.60;100768.73;1798931;79;23084;-88
2022/05/31 01:37:42;;;;;;;23.00;12.10;;;;;;;16.58;78.58;100777.05;1758844;81;20919;-87
2022/05/31 01:40:13;;;;;;;11.20;9.58;;;;;;;16.58;78.55;100771.30;1758142;81;21107;-89
2022/05/31 01:42:44;;;;;;;12.47;10.55;;;;;;;16.58;78.62;100773.08;1758880;81;20928;-90
2022/05/31 01:45:17;;;;;;;13.65;10.58;;;;;;;16.57;78.71;100767.45;1758933;81;20928;-87
2022/05/31 01:47:44;;;;;;;20.48;11.08;;;;;;;16.55;78.70;100764.91;1758846;81;20932;-86
2022/05/31 01:50:15;;;;;;;15.20;10.93;;;;;;;16.54;78.87;100771.66;1758761;81;20964;-88
2022/05/31 01:52:43;;;;;;;14.38;9.73;;;;;;;16.54;78.96;100772.52;1759102;81;21232;-88
2022/05/31 01:55:10;;;;;;;15.55;10.38;;;;;;;16.52;78.99;100770.97;1758597;80;21354;-88
2022/05/31 01:57:40;;;;;;;15.25;10.82;;;;;;;16.51;79.10;100770.59;1758774;81;20947;-89
2022/05/31 02:00:10;;;;;;;11.43;10.15;;;;;;;16.50;79.16;100766.28;1759282;81;20943;-90
2022/05/31 02:02:49;;;;;;;15.25;9.50;;;;;;;16.49;79.22;100769.88;1758979;81;21007;-88
2022/05/31 02:05:16;;;;;;;12.58;10.05;;;;;;;16.48;79.27;100774.83;1697587;83;21346;-89
2022/05/31 02:07:56;;;;;;;10.60;9.53;;;;;;;16.46;79.22;100774.12;1686075;84;20941;-88
2022/05/31 02:10:24;;;;;;;14.43;9.73;;;;;;;16.43;79.12;100769.92;1723008;83;21540;-89
2022/05/31 02:12:53;;;;;;;13.05;10.10;;;;;;;16.39;79.05;100775.10;1722928;83;20901;-88
2022/05/31 02:15:33;;;;;;;11.55;9.85;;;;;;;16.35;79.07;100775.83;1688885;82;20952;-90
2022/05/31 02:18:12;;;;;;;13.72;10.65;;;;;;;16.32;79.14;100773.93;1705028;83;21366;-87
2022/05/31 02:20:57;;;;;;;11.60;10.40;;;;;;;16.30;79.26;100774.53;1722575;83;21442;-86
2022/05/31 02:23:24;;;;;;;14.63;11.25;;;;;;;16.27;79.52;100768.98;1722684;83;21062;-87
2022/05/31 02:25:51;;;;;;;13.80;10.70;;;;;;;16.27;79.67;100771.63;1722872;83;20857;-87
2022/05/31 02:28:18;;;;;;;12.93;10.90;;;;;;;16.26;79.83;100775.26;1722708;83;20897;-87
2022/05/31 02:30:46;;;;;;;13.55;11.73;;;;;;;16.25;79.92;100756.39;1722614;83;21170;-89
2022/05/31 02:33:13;;;;;;;14.83;11.63;;;;;;;16.25;80.03;100755.53;1720625;83;20996;-88
2022/05/31 02:35:42;;;;;;;13.25;11.28;;;;;;;16.25;80.16;100766.11;1709617;84;20928;-88
2022/05/31 02:38:10;;;;;;;12.85;10.72;;;;;;;16.26;80.36;100762.52;1709600;84;21040;-88
2022/05/31 02:40:37;;;;;;;15.23;10.82;;;;;;;16.26;80.53;100754.58;1709455;84;20964;-87
2022/05/31 02:43:04;;;;;;;13.55;10.90;;;;;;;16.27;80.61;100754.92;1709659;83;21220;-88
2022/05/31 02:45:31;;;;;;;16.42;10.95;;;;;;;16.30;80.74;100754.69;1709221;84;21015;-88
2022/05/31 02:47:58;;;;;;;14.78;10.35;;;;;;;16.30;80.76;100758.17;1709123;84;20878;-87
2022/05/31 02:50:26;;;;;;;13.53;10.60;;;;;;;16.33;80.70;100757.07;1709259;84;21438;-86
2022/05/31 02:52:53;;;;;;;12.15;10.60;;;;;;;16.35;80.65;100751.17;1709287;84;20905;-89
2022/05/31 02:55:20;;;;;;;16.25;11.38;;;;;;;16.36;80.61;100752.37;1709179;84;21356;-90
2022/05/31 02:58:06;;;;;;;15.43;9.93;;;;;;;16.38;80.54;100757.52;1709333;84;20862;-89
2022/05/31 03:00:39;;;;;;;12.70;11.43;;;;;;;16.40;80.38;100758.73;1693339;83;20964;-88
2022/05/31 03:03:09;;;;;;;10.90;10.00;;;;;;;16.40;80.36;100758.73;1703292;84;20953;-89
2022/05/31 03:05:46;;;;;;;13.98;11.12;;;;;;;16.41;80.46;100750.67;1653453;84;20964;-88
2022/05/31 03:08:15;;;;;;;12.23;10.93;;;;;;;16.44;80.49;100753.05;1678347;83;21258;-90
2022/05/31 03:10:52;;;;;;;12.28;10.98;;;;;;;16.47;80.56;100751.95;1707721;83;21442;-89
2022/05/31 03:13:24;;;;;;;14.33;11.45;;;;;;;16.51;80.49;100745.45;1709200;84;20949;-89
2022/05/31 03:15:53;;;;;;;13.83;10.68;;;;;;;16.53;80.42;100751.45;1709215;84;21399;-90
2022/05/31 03:18:23;;;;;;;15.18;11.05;;;;;;;16.54;80.36;100761.93;1709397;83;20940;-89
2022/05/31 03:20:52;;;;;;;13.83;11.68;;;;;;;16.55;80.53;100768.05;1709048;84;21796;-91
2022/05/31 03:23:29;;;;;;;12.85;11.55;;;;;;;16.57;80.79;100759.02;1709363;84;20865;-90
2022/05/31 03:25:58;;;;;;;16.57;11.68;;;;;;;16.62;80.88;100757.30;1709511;83;21466;-89
2022/05/31 03:28:25;;;;;;;18.62;11.43;;;;;;;16.67;80.95;100756.92;1709896;83;20877;-89
2022/05/31 03:30:53;;;;;;;17.05;11.35;;;;;;;16.73;81.09;100749.30;1659532;84;20956;-89
2022/05/31 03:33:20;;;;;;;14.75;12.43;;;;;;;16.82;81.14;100747.72;1681489;83;21819;-89
2022/05/31 03:35:47;;;;;;;13.90;11.75;;;;;;;16.89;80.96;100754.17;1709938;84;20945;-89
2022/05/31 03:38:16;;;;;;;14.80;11.83;;;;;;;16.97;80.83;100751.72;1708247;84;20988;-89
2022/05/31 03:40:56;;;;;;;18.65;11.85;;;;;;;17.05;80.67;100756.39;1711493;84;21046;-85
2022/05/31 03:43:28;;;;;;;12.45;11.00;;;;;;;17.12;80.49;100758.86;1711764;80;20960;-89
2022/05/31 03:46:12;;;;;;;17.57;11.88;;;;;;;17.20;80.39;100757.70;1707156;81;21250;-88
2022/05/31 03:48:41;;;;;;;14.05;12.47;;;;;;;17.30;80.36;100764.89;1707468;80;20834;-89
2022/05/31 03:51:10;;;;;;;14.33;12.20;;;;;;;17.39;80.22;100756.97;1711477;80;21020;-88
2022/05/31 03:53:37;;;;;;;13.62;12.18;;;;;;;17.50;80.09;100748.58;1711520;81;20811;-88
2022/05/31 03:56:07;;;;;;;14.13;10.10;;;;;;;17.62;80.05;100742.19;1711252;81;21257;-89
2022/05/31 03:58:35;;;;;;;13.18;11.08;;;;;;;17.76;79.92;100750.25;1683059;81;21139;-89
2022/05/31 04:01:19;;;;;;;12.45;11.10;;;;;;;17.90;79.63;100751.73;1709817;81;20929;-88
2022/05/31 04:03:46;;;;;;;12.90;10.08;;;;;;;18.05;79.47;100751.66;1711188;80;21220;-88
2022/05/31 04:06:15;;;;;;;20.95;12.30;;;;;;;18.19;79.08;100751.28;1711058;81;20929;-89
2022/05/31 04:08:45;;;;;;;15.58;10.85;;;;;;;18.36;78.67;100747.11;1711606;80;21020;-89
2022/05/31 04:11:12;;;;;;;15.28;11.45;;;;;;;18.63;78.36;100745.06;1711326;80;21193;-89
2022/05/31 04:13:39;;;;;;;11.57;10.45;;;;;;;18.94;77.54;100746.25;1683544;82;20957;-89
2022/05/31 04:16:26;;;;;;;15.70;10.45;;;;;;;19.28;76.64;100735.09;1711475;80;20869;-89
2022/05/31 04:18:56;;;;;;;13.90;10.15;;;;;;;19.78;75.16;100740.04;1711467;81;21031;-89
2022/05/31 04:21:24;;;;;;;12.10;9.95;;;;;;;20.28;72.98;100746.73;1711148;80;20913;-88
2022/05/31 04:24:01;;;;;;;14.38;9.05;;;;;;;20.75;70.94;100742.48;1711633;80;21104;-88
2022/05/31 04:26:47;;;;;;;14.68;9.43;;;;;;;21.20;68.89;100748.11;1711626;81;20905;-89
2022/05/31 04:29:34;;;;;;;11.95;10.03;;;;;;;21.73;66.82;100752.38;1711833;81;20975;-90
2022/05/31 04:32:21;;;;;;;11.73;8.58;;;;;;;22.21;65.32;100756.69;1666127;84;21007;-90
2022/05/31 04:34:55;;;;;;;11.43;8.98;;;;;;;22.68;63.31;100756.58;1708693;83;20949;-89
2022/05/31 04:37:21;;;;;;;13.48;7.83;;;;;;;23.03;60.84;100755.37;1708890;84;21136;-89
2022/05/31 04:40:09;;;;;;;11.95;7.65;;;;;;;23.33;59.84;100747.62;1708654;83;20905;-90
2022/05/31 04:42:55;;;;;;;12.85;7.22;;;;;;;23.69;58.78;100748.48;1708766;84;21375;-85
2022/05/31 04:45:41;;;;;;;11.33;7.37;;;;;;;24.12;57.42;100748.92;1708653;84;20936;-89
2022/05/31 04:48:16;;;;;;;9.70;6.83;;;;;;;24.53;56.07;100744.66;1702864;84;20972;-90
2022/05/31 04:50:43;;;;;;;11.50;7.55;;;;;;;24.95;55.30;100741.92;1708788;83;21244;-89
2022/05/31 04:53:10;;;;;;;12.93;7.17;;;;;;;25.34;54.00;100746.21;1708654;83;20850;-85
2022/05/31 04:55:39;;;;;;;13.40;12.00;;;;;;;25.67;52.89;100749.84;1708021;83;20932;-90
2022/05/31 04:58:06;;;;;;;11.80;8.00;;;;;;;25.95;51.71;100761.58;1708948;84;21478;-88
2022/05/31 05:00:33;;;;;;;9.90;8.80;;;;;;;26.14;51.17;100752.56;1708915;84;21063;-91
2022/05/31 05:03:02;;;;;;;12.30;7.95;;;;;;;26.37;50.56;100755.05;1709014;84;21162;-88
2022/05/31 05:05:33;;;;;;;9.90;8.88;;;;;;;26.56;49.84;100752.27;1708696;84;21010;-88
2022/05/31 05:08:05;;;;;;;13.35;9.88;;;;;;;26.77;49.68;100747.36;1707878;84;20929;-88
2022/05/31 05:10:34;;;;;;;9.03;7.17;;;;;;;26.97;48.81;100743.47;1708971;84;20957;-90
2022/05/31 05:13:07;;;;;;;9.10;7.45;;;;;;;27.17;48.63;100749.83;1707370;84;21414;-88
2022/05/31 05:15:40;;;;;;;10.40;6.17;;;;;;;27.38;47.84;100744.06;1704484;84;21863;-87
2022/05/31 05:18:08;;;;;;;9.20;6.25;;;;;;;27.64;47.56;100741.48;1708776;84;21481;-87
2022/05/31 05:20:37;;;;;;;7.90;6.00;;;;;;;27.98;46.89;100737.05;1708696;84;20913;-86
2022/05/31 05:23:06;;;;;;;6.87;6.00;;;;;;;28.33;45.90;100737.44;1708805;84;20917;-88
2022/05/31 05:25:33;;;;;;;7.70;5.25;;;;;;;28.66;45.62;100738.30;1708655;84;21178;-88
2022/05/31 05:30:38;;;;;;;6.95;5.92;;;;;;;28.97;44.89;100729.20;1708766;83;21258;-87
2022/05/31 05:30:40;;;;;;;15.38;11.83;;;;;;;29.25;44.24;100724.92;1705428;84;28069;-89
2022/05/31 05:33:10;;;;;;;9.70;6.67;;;;;;;29.54;43.45;100732.48;1695494;84;20889;-89
2022/05/31 05:35:38;;;;;;;6.53;5.58;;;;;;;29.80;42.64;100732.63;1713802;83;20964;-86
2022/05/31 05:38:07;;;;;;;8.75;7.95;;;;;;;30.06;42.23;100725.70;1692944;83;20968;-88
2022/05/31 05:40:36;;;;;;;9.88;6.97;;;;;;;30.29;41.76;100727.03;1717234;83;21453;-88
2022/05/31 05:43:08;;;;;;;8.58;5.92;;;;;;;30.51;41.17;100722.07;1717587;83;20889;-85
2022/05/31 05:45:38;;;;;;;9.33;5.60;;;;;;;30.74;40.86;100719.55;1716056;83;20865;-88
2022/05/31 05:48:06;;;;;;;8.38;5.55;;;;;;;31.01;40.36;100707.66;1717300;83;20928;-88
2022/05/31 05:50:34;;;;;;;7.45;6.72;;;;;;;31.26;39.71;100715.70;1717438;83;21465;-88
2022/05/31 05:53:09;;;;;;;8.53;5.12;;;;;;;31.44;39.43;100712.17;1717454;83;21402;-88
2022/05/31 05:55:54;;;;;;;8.35;5.92;;;;;;;31.61;39.12;100709.14;1717413;83;21509;-87
2022/05/31 05:58:39;;;;;;;9.28;5.65;;;;;;;31.79;38.60;100712.33;1717428;83;20917;-86
2022/05/31 06:01:13;;;;;;;10.40;5.55;;;;;;;31.90;38.52;100716.14;1702048;83;20937;-90
2022/05/31 06:03:59;;;;;;;7.45;5.60;;;;;;;31.99;38.38;100713.42;1717693;83;21016;-89
2022/05/31 06:06:28;;;;;;;9.58;5.62;;;;;;;32.14;37.76;100723.31;1717898;83;21829;-88
2022/05/31 06:09:05;;;;;;;13.25;6.50;;;;;;;32.25;37.35;100724.41;1717628;83;21737;-87
2022/05/31 06:11:41;;;;;;;16.10;6.28;;;;;;;32.24;37.06;100735.48;1717562;83;21017;-87
2022/05/31 06:14:16;;;;;;;7.45;5.60;;;;;;;32.19;37.15;100732.11;1717349;83;20980;-88
2022/05/31 06:16:48;;;;;;;8.80;7.00;;;;;;;32.21;37.27;100732.17;1717563;83;21422;-88
2022/05/31 06:19:18;;;;;;;11.80;9.35;;;;;;;32.34;37.18;100727.07;1717587;83;21238;-88
2022/05/31 06:21:46;;;;;;;9.35;6.67;;;;;;;32.55;36.53;100725.73;1716781;83;21003;-87
2022/05/31 06:24:18;;;;;;;9.05;6.83;;;;;;;32.46;36.47;100728.97;1717070;83;20944;-90
2022/05/31 06:26:46;;;;;;;13.15;6.00;;;;;;;32.38;37.09;100726.91;1717668;83;20972;-87
2022/05/31 06:29:13;;;;;;;8.75;5.78;;;;;;;32.55;37.22;100731.66;1717542;83;20976;-89
2022/05/31 06:31:41;;;;;;;10.72;6.10;;;;;;;32.87;36.66;100734.05;1717662;83;20979;-87
2022/05/31 06:34:10;;;;;;;15.40;5.42;;;;;;;33.18;36.50;100734.22;1716260;83;20955;-86
2022/05/31 06:36:41;;;;;;;7.20;5.47;;;;;;;33.52;35.97;100727.02;1703656;83;20944;-86
2022/05/31 06:39:08;;;;;;;8.13;6.55;;;;;;;33.82;34.94;100734.98;1717582;83;20920;-88
2022/05/31 06:41:36;;;;;;;14.90;7.75;;;;;;;33.91;34.65;100737.31;1717902;83;21497;-87
2022/05/31 06:44:14;;;;;;;11.78;9.30;;;;;;;33.99;34.29;100737.72;1701146;83;21803;-88
2022/05/31 06:47:01;;;;;;;15.08;10.78;;;;;;;33.98;34.29;100740.16;1687632;85;20869;-86
2022/05/31 06:49:47;;;;;;;10.13;4.87;;;;;;;34.08;34.25;100736.78;1690004;85;20881;-89
2022/05/31 06:58:27;;;;;;;10.98;5.40;;;;;;;35.02;32.98;100737.50;1737558;82;21912;-87
2022/05/31 07:00:56;;;;;;;8.03;4.92;;;;;;;35.31;32.29;100734.63;1737876;82;21008;-88
2022/05/31 07:03:24;;;;;;;5.65;4.95;;;;;;;35.49;31.99;100737.02;1737969;82;20893;-87
2022/05/31 07:05:58;;;;;;;11.45;6.58;;;;;;;35.67;31.98;100730.97;1737820;82;21039;-88
2022/05/31 07:08:25;;;;;;;8.63;5.47;;;;;;;35.87;31.91;100726.27;1737533;82;21039;-88
2022/05/31 07:10:55;;;;;;;8.63;4.87;;;;;;;36.03;31.30;100729.41;1737466;82;21166;-89
2022/05/31 07:13:40;;;;;;;8.15;6.05;;;;;;;36.18;31.05;100728.77;1737563;82;20951;-88
2022/05/31 07:16:24;;;;;;;13.10;5.60;;;;;;;36.29;31.33;100724.21;1737596;82;21497;-87
2022/05/31 07:18:56;;;;;;;8.63;6.27;;;;;;;36.36;30.70;100727.53;1709892;82;20904;-86
2022/05/31 07:21:25;;;;;;;8.43;6.17;;;;;;;36.42;30.72;100718.30;1704091;84;20944;-87
2022/05/31 07:23:53;;;;;;;17.32;14.07;;;;;;;36.56;30.22;100714.56;1704384;84;21228;-88
2022/05/31 07:26:21;;;;;;;16.42;9.93;;;;;;;36.68;30.34;100711.66;1704161;84;20909;-88
2022/05/31 07:28:50;;;;;;;9.90;7.35;;;;;;;36.57;30.21;100712.09;1704014;84;20881;-86
2022/05/31 07:31:19;;;;;;;14.50;8.85;;;;;;;36.59;30.19;100714.58;1704603;84;21131;-89
2022/05/31 07:33:48;;;;;;;14.83;8.95;;;;;;;36.72;30.06;100704.58;1702583;84;20897;-88
2022/05/31 07:36:15;;;;;;;16.73;10.72;;;;;;;36.85;30.21;100704.11;1657190;84;21263;-88
2022/05/31 07:39:01;;;;;;;16.77;12.18;;;;;;;36.99;29.68;100703.62;1722072;82;20856;-88
2022/05/31 07:41:32;;;;;;;19.80;11.85;;;;;;;36.97;29.69;100705.25;1722265;83;20884;-86
2022/05/31 07:43:57;;;;;;;18.35;12.58;;;;;;;36.90;29.51;100705.48;1721946;83;20939;-88
2022/05/31 07:46:24;;;;;;;17.32;13.13;;;;;;;36.77;29.87;100701.05;1722038;83;20947;-86
2022/05/31 07:48:51;;;;;;;16.80;12.18;;;;;;;36.64;29.84;100703.18;1721946;82;21140;-88
2022/05/31 07:51:20;;;;;;;20.72;11.83;;;;;;;36.68;30.48;100702.91;1698571;83;20888;-87
2022/05/31 07:54:05;;;;;;;22.42;11.90;;;;;;;36.93;30.27;100700.88;1722004;82;20971;-86
2022/05/31 07:56:37;;;;;;;20.37;12.10;;;;;;;37.33;29.69;100705.41;1690115;83;20971;-86
2022/05/31 07:59:22;;;;;;;20.35;15.98;;;;;;;37.67;28.65;100696.79;1722014;83;20896;-86
2022/05/31 08:01:55;;;;;;;20.88;16.73;;;;;;;37.71;28.14;100698.72;1693023;83;21181;-88
2022/05/31 08:04:24;;;;;;;29.65;17.75;;;;;;;37.50;28.67;100696.44;1720571;82;20974;-88
2022/05/31 08:06:51;;;;;;;23.07;16.85;;;;;;;37.31;28.47;100688.47;1722177;83;21523;-88
2022/05/31 08:09:21;;;;;;;28.90;16.48;;;;;;;37.22;28.85;100695.01;1721955;83;20911;-87
2022/05/31 08:11:47;;;;;;;25.17;16.70;;;;;;;37.35;29.21;100692.29;1722566;82;20947;-87
2022/05/31 08:14:14;;;;;;;17.92;14.50;;;;;;;37.59;28.93;100687.73;1722036;83;22163;-87
2022/05/31 08:16:41;;;;;;;21.55;15.40;;;;;;;37.83;28.44;100690.78;1722120;83;20852;-88
2022/05/31 08:19:08;;;;;;;25.68;16.10;;;;;;;38.01;28.30;100686.12;1722075;82;20884;-88
2022/05/31 08:21:35;;;;;;;24.52;15.32;;;;;;;38.25;28.04;100686.98;1722214;83;20955;-87
2022/05/31 08:24:05;;;;;;;19.02;14.78;;;;;;;38.43;27.50;100686.95;1722248;83;20879;-88
2022/05/31 08:26:31;;;;;;;30.05;18.67;;;;;;;38.57;27.28;100678.44;1722122;82;21259;-87
2022/05/31 08:28:58;;;;;;;26.37;19.45;;;;;;;38.69;27.20;100680.34;1722186;83;20841;-87
2022/05/31 08:31:31;;;;;;;24.95;20.27;;;;;;;38.51;26.95;100675.44;1722004;83;20959;-86
2022/05/31 08:33:57;;;;;;;;;;;;;;;38.28;27.01;100667.23;1697840;83;21006;-89
2022/05/31 08:36:24;;;;;;;23.42;15.28;;;;;;;37.99;27.76;100675.17;1698516;84;20115;-87
2022/05/31 08:38:51;;;;;;;32.17;12.30;;;;;;;37.87;27.81;100672.72;1709272;83;21211;-86
2022/05/31 08:41:35;;;;;;;19.15;12.33;;;;;;;37.92;27.80;100669.97;1708964;83;21512;-86
2022/05/31 08:44:22;;;;;;;16.37;12.33;;;;;;;38.03;27.90;100669.46;1708793;84;20913;-89
2022/05/31 08:47:03;;;;;;;17.55;12.23;;;;;;;38.17;27.72;100671.91;1708937;84;21486;-88
2022/05/31 08:52:55;;;;;;;18.98;13.35;;;;;;;38.48;27.20;100665.04;1709335;84;21337;-88
2022/05/31 08:58:30;;;;;;;22.05;12.73;;;;;;;38.84;26.83;100664.36;1709084;84;20984;-88
2022/05/31 09:00:58;;;;;;;19.30;13.05;;;;;;;38.93;27.01;100661.87;1708876;84;20980;-88
2022/05/31 09:03:36;;;;;;;20.52;13.08;;;;;;;38.96;26.58;100662.17;1709027;84;20921;-88
2022/05/31 09:06:06;;;;;;;19.17;13.55;;;;;;;39.02;26.71;100662.13;1707888;84;21161;-88
2022/05/31 09:08:55;;;;;;;16.65;13.05;;;;;;;39.05;26.68;100654.73;1709289;83;20996;-88
2022/05/31 09:11:26;;;;;;;16.12;12.00;;;;;;;38.97;27.00;100654.20;1709016;84;20932;-89
2022/05/31 09:14:04;;;;;;;14.87;10.63;;;;;;;38.94;26.49;100661.63;1709696;84;21548;-88
2022/05/31 09:16:59;;;;;;;16.27;10.82;;;;;;;38.89;26.44;100666.30;1709188;83;20905;-87
2022/05/31 09:19:34;;;;;;;16.60;13.35;;;;;;;38.85;26.25;100653.69;1708898;84;22064;-87
2022/05/31 09:22:01;;;;;;;18.75;11.93;;;;;;;38.80;26.53;100656.98;1709234;84;20890;-85
2022/05/31 09:24:28;;;;;;;20.48;12.95;;;;;;;38.79;26.57;100656.73;1711025;84;21324;-86
2022/05/31 09:27:06;;;;;;;16.12;11.53;;;;;;;38.80;26.59;100652.34;1710095;83;20908;-86
2022/05/31 09:30:05;;;;;;;14.85;11.30;;;;;;;38.86;26.83;100649.02;1709315;84;20948;-87
2022/05/31 09:33:12;;;;;;;16.95;11.08;;;;;;;38.98;26.62;100657.78;1709358;84;21331;-89
2022/05/31 09:35:53;;;;;;;16.52;11.25;;;;;;;38.96;25.75;100659.42;1709918;83;21351;-87
2022/05/31 09:38:34;;;;;;;17.80;10.95;;;;;;;38.77;26.40;100648.77;1714768;83;20869;-85
2022/05/31 09:41:24;;;;;;;15.88;10.60;;;;;;;38.81;26.78;100649.05;1714841;83;21423;-86
2022/05/31 09:44:00;;;;;;;15.63;10.25;;;;;;;38.91;26.61;100645.71;1711433;83;21054;-86
2022/05/31 09:46:38;;;;;;;15.35;11.20;;;;;;;38.94;26.95;100649.84;1714561;83;21228;-87
2022/05/31 09:49:31;;;;;;;14.93;9.88;;;;;;;39.05;26.68;100644.58;1714548;83;21027;-87
2022/05/31 09:51:57;;;;;;;13.08;10.00;;;;;;;39.15;26.68;100648.64;1714560;83;21049;-87
2022/05/31 09:57:25;;;;;;;16.32;9.73;;;;;;;39.20;26.32;100644.20;1714679;83;20984;-88
2022/05/31 10:00:18;;;;;;;14.35;10.10;;;;;;;39.18;26.57;100648.62;1690469;83;21243;-85
2022/05/31 10:03:11;;;;;;;14.20;10.10;;;;;;;39.21;26.45;100634.33;1714454;83;21121;-88
2022/05/31 10:05:40;;;;;;;16.82;10.93;;;;;;;39.29;26.11;100646.65;1714547;83;20929;-88
2022/05/31 10:08:32;;;;;;;12.93;9.55;;;;;;;39.31;26.07;100636.18;1714566;83;20917;-85
2022/05/31 10:11:12;;;;;;;17.12;11.38;;;;;;;39.27;26.39;100640.63;1714588;83;20992;-87
2022/05/31 10:13:44;;;;;;;16.50;10.30;;;;;;;39.21;26.59;100634.33;1714757;83;20889;-88
2022/05/31 10:16:17;;;;;;;13.15;10.55;;;;;;;39.18;26.09;100632.16;1712362;82;21047;-88
2022/05/31 10:18:55;;;;;;;19.00;16.85;;;;;;;39.11;26.73;100631.63;1714589;83;21011;-88
2022/05/31 10:21:40;;;;;;;23.47;17.73;;;;;;;38.93;26.72;100626.21;1714621;83;22062;-89
2022/05/31 10:24:25;;;;;;;14.75;8.65;;;;;;;38.69;26.99;100647.45;1714822;83;20909;-87
2022/05/31 10:27:21;;;;;;;13.15;8.25;;;;;;;38.26;26.38;100635.19;1694838;83;21237;-87
2022/05/31 10:30:09;;;;;;;9.98;7.78;;;;;;;37.90;26.72;100633.27;1714998;83;20901;-86
2022/05/31 10:33:08;;;;;;;15.30;8.98;;;;;;;37.52;27.45;100629.12;1715224;83;20916;-87
2022/05/31 10:35:40;;;;;;;15.75;10.53;;;;;;;37.26;27.59;100624.16;1714770;83;21007;-85
2022/05/31 10:38:22;;;;;;;15.03;11.35;;;;;;;37.09;27.92;100623.04;1709713;84;21004;-87
2022/05/31 10:41:05;;;;;;;14.50;7.97;;;;;;;37.17;28.16;100627.14;1709428;84;21347;-87
2022/05/31 10:43:41;;;;;;;7.30;5.72;;;;;;;37.28;28.39;100624.16;1709235;84;21035;-87
2022/05/31 10:46:25;;;;;;;6.95;4.45;;;;;;;37.28;28.35;100620.05;1709475;84;21006;-87
2022/05/31 10:48:55;;;;;;;10.55;7.17;;;;;;;37.29;26.95;100618.16;1709548;83;20909;-86
2022/05/31 10:51:50;;;;;;;13.48;5.08;;;;;;;37.16;27.27;100615.39;1709263;83;20949;-87
2022/05/31 10:54:33;;;;;;;8.88;4.60;;;;;;;37.02;27.96;100623.26;1689300;84;21271;-89
2022/05/31 10:57:09;;;;;;;8.83;3.85;;;;;;;36.92;27.40;100619.92;1708800;83;21359;-87
2022/05/31 10:59:46;;;;;;;7.22;4.12;;;;;;;36.91;27.22;100610.64;1709153;83;20973;-87
2022/05/31 11:02:30;;;;;;;9.83;5.10;;;;;;;36.83;27.39;100611.97;1709176;84;21435;-85
2022/05/31 11:05:06;;;;;;;8.40;4.28;;;;;;;36.92;27.81;100608.17;1708954;83;20945;-87
2022/05/31 11:14:02;;;;;;;7.70;4.17;;;;;;;37.73;27.29;100603.45;1668445;84;20940;-87
2022/05/31 11:17:14;;;;;;;16.23;8.80;;;;;;;37.93;26.71;100599.88;1717073;83;20824;-86
2022/05/31 11:20:15;;;;;;;8.20;6.75;;;;;;;37.91;26.79;100602.63;1715900;83;20925;-87
2022/05/31 11:22:59;;;;;;;10.23;4.20;;;;;;;37.81;27.10;100598.52;1716292;83;21495;-87
2022/05/31 11:25:57;;;;;;;8.68;3.77;;;;;;;37.80;27.32;100593.59;1710846;83;20953;-88
2022/05/31 11:29:13;;;;;;;8.80;7.90;;;;;;;37.71;26.85;100587.85;1715525;83;20890;-88
2022/05/31 11:32:03;;;;;;;7.17;3.80;;;;;;;37.57;27.23;100580.45;1715806;83;20882;-88
2022/05/31 11:34:52;;;;;;;7.47;3.70;;;;;;;37.31;27.08;100579.05;1715866;83;20879;-87
2022/05/31 11:37:36;;;;;;;7.03;3.70;;;;;;;36.84;27.46;100576.73;1715694;83;21157;-88
2022/05/31 11:40:26;;;;;;;8.00;5.60;;;;;;;36.38;27.68;100570.22;1711763;82;20950;-86
2022/05/31 11:43:32;;;;;;;11.48;3.85;;;;;;;36.08;28.14;100562.89;1715465;83;20981;-88
2022/05/31 11:46:07;;;;;;;8.95;3.60;;;;;;;35.86;28.65;100565.77;1715640;83;20926;-87
2022/05/31 11:49:02;;;;;;;7.35;3.17;;;;;;;35.66;29.25;100570.53;1715816;83;21379;-85
2022/05/31 11:51:53;;;;;;;9.53;3.60;;;;;;;35.53;29.27;100561.91;1652957;86;21186;-86
2022/05/31 11:58:19;;;;;;;11.50;3.72;;;;;;;35.10;30.33;100542.66;1653143;86;21036;-87
2022/05/31 12:00:59;;;;;;;9.35;4.08;;;;;;;35.05;30.76;100542.08;1653358;86;20980;-89
2022/05/31 12:03:39;;;;;;;9.40;4.10;;;;;;;34.98;29.81;100539.28;1653589;86;20941;-87
2022/05/31 12:06:36;;;;;;;9.18;3.87;;;;;;;34.88;28.97;100533.16;1653045;86;21944;-87
2022/05/31 12:09:17;;;;;;;9.93;3.12;;;;;;;34.69;29.09;100531.87;1653287;86;20964;-87
2022/05/31 12:12:12;;;;;;;15.50;11.55;;;;;;;34.43;29.17;100526.08;1641874;86;20911;-84
2022/05/31 12:14:49;;;;;;;15.53;4.90;;;;;;;34.18;29.96;100515.69;1637224;87;20967;-84
2022/05/31 12:17:16;;;;;;;7.97;3.55;;;;;;;34.04;30.33;100509.75;1637480;87;21019;-88